createdAt,value
2023-05-14T00:02:46.860Z,100.00
2023-05-14T00:06:58.448Z,100.00
2023-05-14T00:11:04.385Z,100.00
2023-05-14T00:15:08.085Z,100.00
2023-05-14T00:19:17.449Z,100.00
2023-05-14T00:23:25.227Z,100.00
2023-05-14T00:27:30.220Z,100.00
2023-05-14T00:31:38.995Z,100.00
2023-05-14T00:35:51.356Z,100.00
2023-05-14T00:40:03.475Z,100.00
2023-05-14T00:44:09.560Z,100.00
2023-05-14T00:48:23.131Z,100.00
2023-05-14T00:52:26.668Z,100.00
2023-05-14T00:56:42.510Z,100.00
2023-05-14T01:00:46.797Z,100.00
2023-05-14T01:04:52.838Z,100.00
2023-05-14T01:09:15.211Z,100.00
2023-05-14T01:13:44.181Z,100.00
2023-05-14T01:18:05.877Z,100.00
2023-05-14T01:22:16.613Z,100.00
2023-05-14T01:26:23.570Z,100.00
2023-05-14T01:30:34.981Z,100.00
2023-05-14T01:34:42.782Z,100.00
2023-05-14T01:38:50.006Z,100.00
2023-05-14T01:43:05.256Z,100.00
2023-05-14T01:47:12.774Z,100.00
2023-05-14T01:51:18.794Z,100.00
2023-05-14T01:55:25.323Z,100.00
2023-05-14T01:59:30.601Z,100.00
2023-05-14T02:03:38.975Z,100.00
2023-05-14T02:07:49.855Z,100.00
2023-05-14T02:12:03.080Z,100.00
2023-05-14T02:16:13.204Z,100.00
2023-05-14T02:20:19.936Z,100.00
2023-05-14T02:24:31.708Z,100.00
2023-05-14T02:28:42.430Z,100.00
2023-05-14T02:32:48.411Z,100.00
2023-05-14T02:36:59.966Z,100.00
2023-05-14T02:41:11.194Z,100.00
2023-05-14T02:45:21.245Z,100.00
2023-05-14T02:49:45.339Z,100.00
2023-05-14T02:53:54.819Z,100.00
2023-05-14T02:58:09.765Z,100.00
2023-05-14T03:02:27.979Z,100.00
2023-05-14T03:06:41.245Z,100.00
2023-05-14T03:10:54.587Z,100.00
2023-05-14T03:15:04.744Z,100.00
2023-05-14T03:19:13.687Z,100.00
2023-05-14T03:23:29.598Z,100.00
2023-05-14T03:27:37.729Z,100.00
2023-05-14T03:31:45.119Z,100.00
2023-05-14T03:35:53.172Z,100.00
2023-05-14T03:40:06.377Z,100.00
2023-05-14T03:44:25.943Z,100.00
2023-05-14T03:48:32.877Z,100.00
2023-05-14T03:52:49.772Z,100.00
2023-05-14T03:57:00.162Z,100.00
2023-05-14T04:01:10.187Z,100.00
2023-05-14T04:05:27.557Z,100.00
2023-05-14T04:09:41.766Z,100.00
2023-05-14T04:14:02.512Z,100.00
2023-05-14T04:18:14.955Z,100.00
2023-05-14T04:22:22.630Z,100.00
2023-05-14T04:26:28.021Z,100.00
2023-05-14T04:30:32.021Z,100.00
2023-05-14T04:34:41.429Z,100.00
2023-05-14T04:38:47.419Z,100.00
2023-05-14T04:42:54.632Z,100.00
2023-05-14T04:47:07.080Z,100.00
2023-05-14T04:51:18.747Z,100.00
2023-05-14T04:55:26.346Z,100.00
2023-05-14T04:59:39.134Z,100.00
2023-05-14T05:03:58.508Z,100.00
2023-05-14T05:08:07.808Z,100.00
2023-05-14T05:12:11.925Z,100.00
2023-05-14T05:16:18.888Z,100.00
2023-05-14T05:20:34.750Z,100.00
2023-05-14T05:24:50.243Z,100.00
2023-05-14T05:28:56.483Z,100.00
2023-05-14T05:33:05.768Z,100.00
2023-05-14T05:37:21.784Z,100.00
2023-05-14T05:41:32.868Z,100.00
2023-05-14T05:45:43.017Z,100.00
2023-05-14T05:49:47.395Z,100.00
2023-05-14T05:53:56.298Z,100.00
2023-05-14T05:58:08.736Z,100.00
2023-05-14T06:02:20.618Z,100.00
2023-05-14T06:06:33.822Z,100.00
2023-05-14T06:10:47.524Z,100.00
2023-05-14T06:14:56.344Z,100.00
2023-05-14T06:19:06.007Z,100.00
2023-05-14T06:23:14.785Z,100.00
2023-05-14T06:27:40.897Z,100.00
2023-05-14T06:31:47.964Z,100.00
2023-05-14T06:35:56.474Z,100.00
2023-05-14T06:40:09.072Z,100.00
2023-05-14T06:44:20.284Z,100.00
2023-05-14T06:48:33.770Z,100.00
2023-05-14T06:52:45.804Z,100.00
2023-05-14T06:57:01.398Z,100.00
2023-05-14T07:01:31.066Z,100.00
2023-05-14T07:05:44.364Z,100.00
2023-05-14T07:09:55.677Z,100.00
2023-05-14T07:14:02.472Z,100.00
2023-05-14T07:18:06.126Z,100.00
2023-05-14T07:22:15.203Z,99.61
2023-05-14T07:26:25.674Z,99.03
2023-05-14T07:30:41.388Z,97.00
2023-05-14T07:34:48.186Z,95.30
2023-05-14T07:38:52.601Z,94.61
2023-05-14T07:43:01.769Z,91.12
2023-05-14T07:47:13.675Z,91.37
2023-05-14T07:51:20.420Z,89.34
2023-05-14T07:55:25.893Z,86.92
2023-05-14T07:59:35.682Z,88.65
2023-05-14T08:03:41.012Z,86.90
2023-05-14T08:07:48.552Z,83.56
2023-05-14T08:11:51.753Z,84.60
2023-05-14T08:15:54.055Z,83.31
2023-05-14T08:20:00.743Z,80.80
2023-05-14T08:24:09.794Z,83.81
2023-05-14T08:28:14.572Z,80.81
2023-05-14T08:32:23.749Z,79.57
2023-05-14T08:36:28.792Z,79.39
2023-05-14T08:40:31.110Z,76.10
2023-05-14T08:44:48.821Z,74.36
2023-05-14T08:48:58.922Z,73.16
2023-05-14T08:53:09.606Z,73.55
2023-05-14T08:57:13.371Z,69.49
2023-05-14T09:01:19.610Z,71.48
2023-05-14T09:05:25.870Z,73.05
2023-05-14T09:09:32.386Z,74.66
2023-05-14T09:13:40.203Z,73.60
2023-05-14T09:17:48.942Z,72.13
2023-05-14T09:22:02.229Z,70.50
2023-05-14T09:26:06.635Z,64.53
2023-05-14T09:30:15.475Z,64.41
2023-05-14T09:34:30.817Z,64.92
2023-05-14T09:38:41.910Z,63.46
2023-05-14T09:42:51.394Z,64.59
2023-05-14T09:46:55.376Z,64.14
2023-05-14T09:51:01.437Z,65.98
2023-05-14T09:55:10.350Z,65.89
2023-05-14T09:59:19.573Z,65.52
2023-05-14T10:03:26.108Z,62.00
2023-05-14T10:07:51.330Z,63.92
2023-05-14T10:12:00.426Z,63.45
2023-05-14T10:16:23.616Z,64.03
2023-05-14T10:20:31.757Z,59.70
2023-05-14T10:24:45.606Z,61.41
2023-05-14T10:28:51.625Z,61.32
2023-05-14T10:33:21.714Z,60.34
2023-05-14T10:37:27.601Z,61.93
2023-05-14T10:41:35.421Z,60.87
2023-05-14T10:45:42.880Z,59.25
2023-05-14T10:49:50.640Z,59.07
2023-05-14T10:54:05.179Z,60.49
2023-05-14T10:58:16.777Z,60.87
2023-05-14T11:02:32.012Z,61.74
2023-05-14T11:06:40.228Z,62.86
2023-05-14T11:10:52.446Z,63.44
2023-05-14T11:15:06.315Z,64.67
2023-05-14T11:19:34.524Z,64.56
2023-05-14T11:23:46.973Z,64.11
2023-05-14T11:28:00.050Z,64.94
2023-05-14T11:32:09.173Z,60.24
2023-05-14T11:36:15.612Z,62.60
2023-05-14T11:40:25.814Z,60.81
2023-05-14T11:44:33.816Z,58.47
2023-05-14T11:48:40.793Z,56.98
2023-05-14T11:52:49.575Z,55.97
2023-05-14T11:56:52.985Z,54.30
2023-05-14T12:01:03.674Z,52.25
2023-05-14T12:05:13.926Z,51.40
2023-05-14T12:09:24.061Z,49.08
2023-05-14T12:13:32.731Z,48.63
2023-05-14T12:17:35.902Z,49.25
2023-05-14T12:21:44.875Z,46.68
2023-05-14T12:26:10.486Z,49.25
2023-05-14T12:30:22.815Z,47.86
2023-05-14T12:34:37.216Z,46.24
2023-05-14T12:38:45.383Z,45.43
2023-05-14T12:42:57.097Z,46.74
2023-05-14T12:47:04.313Z,47.33
2023-05-14T12:51:08.220Z,46.37
2023-05-14T12:55:17.831Z,46.72
2023-05-14T12:59:29.320Z,46.29
2023-05-14T13:03:37.730Z,45.22
2023-05-14T13:07:44.709Z,44.26
2023-05-14T13:11:52.051Z,43.97
2023-05-14T13:15:59.251Z,43.16
2023-05-14T13:20:09.482Z,43.28
2023-05-14T13:24:16.614Z,44.04
2023-05-14T13:28:23.193Z,43.25
2023-05-14T13:32:32.504Z,43.00
2023-05-14T13:36:53.045Z,43.65
2023-05-14T13:40:58.146Z,43.08
2023-05-14T13:45:04.971Z,39.40
2023-05-14T13:49:09.932Z,35.47
2023-05-14T13:53:37.866Z,32.82
2023-05-14T13:57:44.497Z,30.72
2023-05-14T14:01:53.943Z,29.56
2023-05-14T14:05:57.368Z,29.19
2023-05-14T14:10:04.494Z,28.95
2023-05-14T14:14:16.805Z,27.26
2023-05-14T14:18:47.047Z,27.62
2023-05-14T14:22:53.742Z,27.96
2023-05-14T14:27:03.503Z,27.85
2023-05-14T14:31:09.994Z,28.59
2023-05-14T14:35:16.168Z,28.62
2023-05-14T14:39:22.350Z,27.81
2023-05-14T14:43:28.616Z,26.84
2023-05-14T14:47:35.393Z,28.96
2023-05-14T14:51:43.715Z,30.48
2023-05-14T14:55:50.653Z,33.29
2023-05-14T15:00:02.539Z,34.38
2023-05-14T15:04:12.380Z,33.92
2023-05-14T15:08:19.898Z,35.49
2023-05-14T15:12:23.809Z,35.55
2023-05-14T15:16:30.204Z,35.53
2023-05-14T15:20:36.860Z,37.23
2023-05-14T15:24:45.924Z,38.28
2023-05-14T15:28:52.300Z,38.54
2023-05-14T15:32:59.904Z,38.51
2023-05-14T15:37:04.644Z,37.81
2023-05-14T15:41:14.796Z,38.96
2023-05-14T15:45:25.661Z,39.27
2023-05-14T15:49:32.874Z,39.41
2023-05-14T15:53:38.579Z,39.16
2023-05-14T15:57:49.985Z,39.72
2023-05-14T16:01:57.636Z,40.72
2023-05-14T16:06:01.725Z,40.89
2023-05-14T16:10:12.937Z,40.93
2023-05-14T16:14:20.130Z,41.48
2023-05-14T16:18:35.649Z,42.00
2023-05-14T16:22:39.293Z,42.37
2023-05-14T16:27:01.599Z,42.85
2023-05-14T16:31:09.112Z,43.06
2023-05-14T16:35:21.115Z,43.46
2023-05-14T16:39:25.030Z,43.82
2023-05-14T16:43:29.568Z,43.74
2023-05-14T16:47:38.173Z,43.09
2023-05-14T16:51:45.569Z,44.97
2023-05-14T16:55:50.170Z,45.28
2023-05-14T16:59:58.751Z,47.70
2023-05-14T17:04:04.545Z,47.59
2023-05-14T17:08:12.513Z,46.76
2023-05-14T17:12:16.077Z,46.87
2023-05-14T17:16:24.314Z,46.93
2023-05-14T17:20:30.343Z,46.93
2023-05-14T17:24:40.571Z,45.79
2023-05-14T17:28:46.924Z,45.34
2023-05-14T17:32:51.720Z,45.53
2023-05-14T17:37:03.040Z,46.92
2023-05-14T17:41:13.120Z,48.65
2023-05-14T17:45:24.081Z,49.61
2023-05-14T17:49:35.859Z,52.55
2023-05-14T17:53:43.944Z,52.54
2023-05-14T17:57:54.790Z,53.83
2023-05-14T18:02:11.700Z,54.19
2023-05-14T18:06:20.031Z,55.15
2023-05-14T18:10:33.452Z,57.14
2023-05-14T18:14:41.338Z,57.99
2023-05-14T18:18:47.357Z,59.53
2023-05-14T18:22:59.822Z,60.42
2023-05-14T18:27:08.798Z,60.52
2023-05-14T18:31:23.897Z,61.77
2023-05-14T18:35:28.575Z,61.79
2023-05-14T18:39:33.649Z,62.54
2023-05-14T18:43:38.959Z,66.77
2023-05-14T18:47:53.327Z,68.12
2023-05-14T18:52:01.888Z,70.16
2023-05-14T18:56:10.128Z,72.83
2023-05-14T19:00:19.694Z,75.49
2023-05-14T19:04:31.160Z,77.53
2023-05-14T19:08:42.480Z,78.82
2023-05-14T19:12:49.048Z,80.06
2023-05-14T19:16:52.649Z,80.50
2023-05-14T19:21:00.891Z,81.45
2023-05-14T19:25:05.150Z,82.81
2023-05-14T19:29:11.408Z,84.45
2023-05-14T19:33:29.020Z,84.76
2023-05-14T19:37:38.490Z,85.04
2023-05-14T19:41:46.162Z,83.96
2023-05-14T19:45:49.753Z,85.35
2023-05-14T19:50:01.288Z,85.93
2023-05-14T19:54:13.862Z,86.86
2023-05-14T19:58:25.513Z,86.70
2023-05-14T20:02:30.793Z,89.52
2023-05-14T20:06:39.095Z,92.05
2023-05-14T20:10:45.690Z,90.59
2023-05-14T20:14:53.279Z,91.41
2023-05-14T20:19:03.264Z,92.27
2023-05-14T20:23:16.277Z,93.83
2023-05-14T20:27:22.536Z,96.15
2023-05-14T20:31:35.129Z,97.96
2023-05-14T20:35:43.184Z,98.72
2023-05-14T20:39:52.147Z,99.45
2023-05-14T20:43:57.614Z,100.00
2023-05-14T20:48:03.446Z,100.00
2023-05-14T20:52:10.970Z,99.68
2023-05-14T20:56:17.565Z,100.00
2023-05-14T21:00:21.770Z,100.00
2023-05-14T21:04:28.858Z,100.00
2023-05-14T21:08:45.972Z,100.00
2023-05-14T21:12:54.606Z,100.00
2023-05-14T21:17:00.853Z,100.00
2023-05-14T21:21:12.828Z,100.00
2023-05-14T21:25:18.658Z,100.00
2023-05-14T21:29:22.255Z,100.00
2023-05-14T21:33:36.187Z,100.00
2023-05-14T21:37:42.927Z,100.00
2023-05-14T21:41:47.276Z,100.00
2023-05-14T21:46:01.181Z,100.00
2023-05-14T21:50:08.824Z,100.00
2023-05-14T21:54:21.672Z,100.00
2023-05-14T21:58:31.531Z,100.00
2023-05-14T22:02:38.252Z,100.00
2023-05-14T22:06:42.051Z,100.00
2023-05-14T22:10:51.401Z,100.00
2023-05-14T22:14:57.698Z,100.00
2023-05-14T22:19:05.354Z,100.00
2023-05-14T22:23:20.363Z,100.00
2023-05-14T22:27:30.847Z,100.00
2023-05-14T22:31:45.116Z,100.00
2023-05-14T22:35:57.561Z,100.00
2023-05-14T22:40:06.946Z,100.00
2023-05-14T22:44:10.648Z,100.00
2023-05-14T22:48:14.875Z,100.00
2023-05-14T22:52:27.042Z,100.00
2023-05-14T22:56:37.897Z,100.00
2023-05-14T23:00:45.773Z,100.00
2023-05-14T23:05:01.068Z,100.00
2023-05-14T23:09:10.589Z,100.00
2023-05-14T23:13:17.645Z,100.00
2023-05-14T23:17:24.769Z,100.00
2023-05-14T23:21:34.496Z,100.00
2023-05-14T23:25:38.509Z,100.00
2023-05-14T23:29:41.796Z,100.00
2023-05-14T23:33:48.392Z,100.00
2023-05-14T23:37:56.269Z,100.00
2023-05-14T23:42:15.445Z,100.00
2023-05-14T23:46:29.470Z,100.00
2023-05-14T23:50:36.778Z,100.00
2023-05-14T23:54:44.519Z,100.00
2023-05-14T23:58:50.821Z,100.00
